Time;durP1;ratioP1;P1;durP2;ratioP2;P2;SDS_P1;SDS_P2;PMS_P1;PMS_P2;Temp;Humidity;BMP_temperature;BMP_pressure;BME280_temperature;BME280_humidity;BME280_pressure;Samples;Min_cycle;Max_cycle;Signal;HPM_P1;HPM_P2
2023/06/15 00:00:48;;;;;;;;;;;;;;;19.57;41.59;100729.91;4946623;28;8365;-88
2023/06/15 00:03:14;;;;;;;;;;;;;;;19.52;42.08;100729.84;4962582;28;8347;-88
2023/06/15 00:05:40;;;;;;;;;;;;;;;19.45;42.05;100732.28;4942533;28;8572;-87
2023/06/15 00:08:08;;;;;;;;;;;;;;;19.38;42.55;100728.72;4942549;28;6961;-87
2023/06/15 00:10:33;;;;;;;;;;;;;;;19.34;42.47;100729.53;4960634;28;7277;-86
2023/06/15 00:12:59;;;;;;;;;;;;;;;19.27;43.06;100731.16;4943117;28;6772;-87
2023/06/15 00:15:27;;;;;;;;;;;;;;;19.20;42.71;100727.56;4946503;28;7364;-87
2023/06/15 00:17:55;;;;;;;;;;;;;;;19.15;43.29;100726.63;4941367;28;6989;-87
2023/06/15 00:20:22;;;;;;;;;;;;;;;19.10;43.59;100725.63;4950511;28;7078;-87
2023/06/15 00:22:51;;;;;;;;;;;;;;;19.06;43.19;100722.09;4932077;28;8435;-85
2023/06/15 00:25:17;;;;;;;;;;;;;;;19.01;43.68;100721.16;4942832;28;8454;-87
2023/06/15 00:27:43;;;;;;;;;;;;;;;18.99;43.54;100721.09;4956810;28;8776;-88
2023/06/15 00:30:12;;;;;;;;;;;;;;;18.96;43.60;100721.03;4928534;28;9359;-86
2023/06/15 00:32:37;;;;;;;;;;;;;;;18.92;43.82;100724.41;4908347;28;13255;-86
2023/06/15 00:35:04;;;;;;;;;;;;;;;18.87;43.96;100726.06;4919283;28;7029;-86
2023/06/15 00:37:30;;;;;;;;;;;;;;;18.84;44.36;100729.47;4935894;28;7173;-87
2023/06/15 00:39:56;;;;;;;;;;;;;;;18.77;44.14;100726.75;4925268;28;7192;-87
2023/06/15 00:42:21;;;;;;;;;;;;;;;18.74;44.12;100732.75;4910353;28;8859;-85
2023/06/15 00:44:47;;;;;;;;;;;;;;;18.71;44.63;100727.50;4911639;28;8351;-87
2023/06/15 00:47:17;;;;;;;;;;;;;;;18.66;44.81;100724.81;4926187;28;6793;-86
2023/06/15 00:49:44;;;;;;;;;;;;;;;18.62;44.45;100746.34;4911681;28;8772;-86
2023/06/15 00:52:13;;;;;;;;;;;;;;;18.57;45.05;100740.19;4926313;28;8737;-87
2023/06/15 00:54:40;;;;;;;;;;;;;;;18.52;45.19;100740.09;4937519;28;7988;-84
2023/06/15 00:57:10;;;;;;;;;;;;;;;18.46;45.36;100740.84;4922239;28;8586;-86
2023/06/15 00:59:40;;;;;;;;;;;;;;;18.42;45.31;100739.03;4926438;28;8457;-87
2023/06/15 01:02:06;;;;;;;;;;;;;;;18.39;45.61;100741.56;4937150;28;8950;-87
2023/06/15 01:04:31;;;;;;;;;;;;;;;18.36;45.69;100744.09;4922070;28;8070;-88
2023/06/15 01:07:04;;;;;;;;;;;;;;;18.32;45.61;100742.25;4921314;28;6959;-87
2023/06/15 01:09:35;;;;;;;;;;;;;;;18.29;45.65;100742.22;4904977;28;8611;-85
2023/06/15 01:12:05;;;;;;;;;;;;;;;18.25;45.86;100740.38;4925258;28;8623;-87
2023/06/15 01:14:33;;;;;;;;;;;;;;;18.20;45.59;100742.88;4907995;29;6976;-87
2023/06/15 01:17:13;;;;;;;;;;;;;;;18.14;45.75;100746.19;4935885;28;6970;-86
2023/06/15 01:20:04;;;;;;;;;;;;;;;18.11;45.88;100751.34;4934445;28;9333;-86
2023/06/15 01:22:59;;;;;;;;;;;;;;;18.07;46.28;100743.44;4916505;28;8791;-86
2023/06/15 01:25:45;;;;;;;;;;;;;;;18.03;46.00;100739.88;4924003;29;8440;-84
2023/06/15 01:28:17;;;;;;;;;;;;;;;18.00;46.48;100747.59;4941074;28;9430;-87
2023/06/15 01:30:46;;;;;;;;;;;;;;;17.98;46.20;100746.69;4918822;29;8780;-86
2023/06/15 01:33:15;;;;;;;;;;;;;;;17.96;46.67;100751.81;4920594;29;8454;-87
2023/06/15 01:35:41;;;;;;;;;;;;;;;17.94;46.49;100755.22;4926255;28;6824;-86
2023/06/15 01:38:07;;;;;;;;;;;;;;;17.89;46.58;100750.81;4933100;28;7399;-86
2023/06/15 01:40:41;;;;;;;;;;;;;;;17.85;46.83;100745.53;4931700;28;7194;-86
2023/06/15 01:43:12;;;;;;;;;;;;;;;17.83;46.80;100750.66;4905920;29;8530;-85
2023/06/15 01:45:41;;;;;;;;;;;;;;;17.78;46.94;100749.69;4922895;29;7150;-85
2023/06/15 01:48:08;;;;;;;;;;;;;;;17.74;46.90;100747.84;4926712;29;7082;-87
2023/06/15 01:50:40;;;;;;;;;;;;;;;17.73;47.06;100748.69;4934569;28;6868;-86
2023/06/15 01:53:06;;;;;;;;;;;;;;;17.69;46.80;100754.66;4938227;28;6804;-86
2023/06/15 01:55:38;;;;;;;;;;;;;;;17.67;46.95;100758.91;4908216;29;8403;-84
2023/06/15 01:58:03;;;;;;;;;;;;;;;17.63;47.21;100752.78;4917999;29;8544;-84
2023/06/15 02:00:29;;;;;;;;;;;;;;;17.60;47.19;100751.00;4917739;28;8463;-86
2023/06/15 02:02:55;;;;;;;;;;;;;;;17.58;47.39;100755.25;4930874;28;7358;-88
2023/06/15 02:05:21;;;;;;;;;;;;;;;17.55;47.46;100760.34;4925703;29;7020;-82
2023/06/15 02:07:47;;;;;;;;;;;;;;;17.51;47.50;100763.72;4936196;28;9019;-84
2023/06/15 02:10:12;;;;;;;;;;;;;;;17.51;47.26;100765.41;4934833;28;6982;-83
2023/06/15 02:12:38;;;;;;;;;;;;;;;17.46;47.24;100762.72;4924150;29;8707;-83
2023/06/15 02:15:05;;;;;;;;;;;;;;;17.45;47.67;100766.13;4937344;28;7008;-83
2023/06/15 02:17:41;;;;;;;;;;;;;;;17.43;47.74;100765.22;4933816;28;7672;-84
2023/06/15 02:20:11;;;;;;;;;;;;;;;17.40;47.47;100767.75;4908964;29;7081;-84
2023/06/15 02:22:38;;;;;;;;;;;;;;;17.37;47.20;100763.38;4924174;29;6832;-82
2023/06/15 02:25:04;;;;;;;;;;;;;;;17.33;47.97;100762.41;4912985;29;8359;-81
2023/06/15 02:27:31;;;;;;;;;;;;;;;17.31;48.09;100764.09;4929033;28;6816;-81
2023/06/15 02:29:57;;;;;;;;;;;;;;;17.30;48.19;100759.75;4941050;28;7753;-83
2023/06/15 02:32:35;;;;;;;;;;;;;;;17.30;47.77;100757.16;4903138;28;6905;-81
2023/06/15 02:35:11;;;;;;;;;;;;;;;17.29;47.95;100759.69;4911540;28;8443;-81
2023/06/15 02:37:39;;;;;;;;;;;;;;;17.28;47.97;100761.38;4912689;28;8688;-82
2023/06/15 02:40:06;;;;;;;;;;;;;;;17.26;47.91;100763.06;4930500;28;8472;-81
2023/06/15 02:42:33;;;;;;;;;;;;;;;17.26;48.26;100760.47;4930489;28;8729;-85
2023/06/15 02:44:59;;;;;;;;;;;;;;;17.23;47.97;100763.00;4945009;28;7178;-82
2023/06/15 02:47:25;;;;;;;;;;;;;;;17.22;48.22;100763.84;4947620;28;7214;-84
2023/06/15 02:49:51;;;;;;;;;;;;;;;17.18;48.47;100764.56;4946649;28;6788;-81
2023/06/15 02:52:17;;;;;;;;;;;;;;;17.16;48.32;100766.25;4944359;28;8432;-83
2023/06/15 02:54:43;;;;;;;;;;;;;;;17.10;48.67;100768.69;4942996;28;8377;-81
2023/06/15 02:57:08;;;;;;;;;;;;;;;17.10;48.43;100763.53;4932072;28;7158;-81
2023/06/15 02:59:35;;;;;;;;;;;;;;;17.07;48.11;100762.56;4943091;28;6792;-81
2023/06/15 03:02:04;;;;;;;;;;;;;;;17.05;48.75;100765.97;4956118;28;8787;-81
2023/06/15 03:04:30;;;;;;;;;;;;;;;17.04;48.57;100762.50;4944266;28;6984;-81
2023/06/15 03:06:57;;;;;;;;;;;;;;;17.06;48.82;100767.75;4953969;28;8391;-82
2023/06/15 03:09:23;;;;;;;;;;;;;;;17.08;48.84;100766.06;4949400;28;7103;-81
2023/06/15 03:11:52;;;;;;;;;;;;;;;17.10;48.66;100763.53;4962702;28;6964;-83
2023/06/15 03:14:20;;;;;;;;;;;;;;;17.09;48.69;100773.00;4932926;28;8808;-85
2023/06/15 03:16:47;;;;;;;;;;;;;;;17.10;49.03;100769.56;4959923;28;8467;-82
2023/06/15 03:19:16;;;;;;;;;;;;;;;17.13;49.00;100773.94;4936249;28;8480;-81
2023/06/15 03:21:45;;;;;;;;;;;;;;;17.16;49.25;100774.03;4951174;28;8447;-83
2023/06/15 03:24:13;;;;;;;;;;;;;;;17.19;48.74;100780.16;4939261;28;8362;-82
2023/06/15 03:26:47;;;;;;;;;;;;;;;17.22;48.68;100774.19;4942305;28;7246;-82
2023/06/15 03:29:13;;;;;;;;;;;;;;;17.24;48.60;100777.69;4930823;28;8931;-83
2023/06/15 03:31:40;;;;;;;;;;;;;;;17.25;48.61;100774.28;4948418;28;8521;-82
2023/06/15 03:34:10;;;;;;;;;;;;;;;17.28;48.97;100774.34;4962362;28;6811;-82
2023/06/15 03:36:36;;;;;;;;;;;;;;;17.33;48.74;100777.94;4949046;28;6981;-82
2023/06/15 03:39:03;;;;;;;;;;;;;;;17.40;49.04;100775.53;4959419;28;8683;-82
2023/06/15 03:41:30;;;;;;;;;;;;;;;17.46;49.29;100776.56;4948286;28;6808;-83
2023/06/15 03:43:57;;;;;;;;;;;;;;;17.55;48.99;100781.09;4949781;28;8314;-83
2023/06/15 03:46:22;;;;;;;;;;;;;;;17.61;49.16;100770.00;4946325;28;6795;-83
2023/06/15 03:48:53;;;;;;;;;;;;;;;17.73;48.49;100774.59;4945761;28;6797;-82
2023/06/15 03:51:19;;;;;;;;;;;;;;;17.83;48.50;100779.19;4946512;28;8433;-82
2023/06/15 03:53:47;;;;;;;;;;;;;;;17.94;48.46;100787.22;4957988;28;7989;-82
2023/06/15 03:56:12;;;;;;;;;;;;;;;18.00;48.50;100776.13;4945218;28;8416;-84
2023/06/15 03:58:41;;;;;;;;;;;;;;;18.05;48.37;100787.50;4939102;28;8827;-81
2023/06/15 04:01:07;;;;;;;;;;;;;;;18.09;48.48;100778.97;4949997;28;7324;-84
2023/06/15 04:03:36;;;;;;;;;;;;;;;18.10;48.25;100783.31;4946318;28;8543;-82
2023/06/15 04:06:04;;;;;;;;;;;;;;;18.09;48.20;100784.16;4945585;28;8449;-82
2023/06/15 04:08:31;;;;;;;;;;;;;;;18.07;48.21;100785.84;4956949;28;6808;-82
2023/06/15 04:11:00;;;;;;;;;;;;;;;18.07;48.04;100792.72;4949883;28;6967;-82
2023/06/15 04:13:26;;;;;;;;;;;;;;;18.04;48.06;100780.56;4948676;28;8402;-82
2023/06/15 04:15:53;;;;;;;;;;;;;;;18.08;48.58;100785.00;4963503;28;6948;-82
2023/06/15 04:18:25;;;;;;;;;;;;;;;18.24;49.27;100790.50;4949860;28;7004;-85
2023/06/15 04:20:51;;;;;;;;;;;;;;;18.45;49.99;100788.41;4960369;28;7300;-86
2023/06/15 04:23:17;;;;;;;;;;;;;;;18.74;49.54;100782.97;4981929;28;8414;-82
2023/06/15 04:25:45;;;;;;;;;;;;;;;19.08;49.47;100784.50;4949512;28;8431;-82
2023/06/15 04:28:10;;;;;;;;;;;;;;;19.41;49.63;100791.13;4965242;28;8459;-82
2023/06/15 04:30:40;;;;;;;;;;;;;;;19.79;49.28;100792.66;4934412;28;9655;-83
2023/06/15 04:33:12;;;;;;;;;;;;;;;20.18;48.74;100790.66;4963546;28;7441;-82
2023/06/15 04:35:45;;;;;;;;;;;;;;;20.60;48.07;100791.25;4952154;28;6872;-82
2023/06/15 04:38:14;;;;;;;;;;;;;;;21.00;47.28;100801.31;4933585;28;7013;-82
2023/06/15 04:40:46;;;;;;;;;;;;;;;21.36;46.65;100803.41;4949403;28;9070;-82
2023/06/15 04:43:13;;;;;;;;;;;;;;;21.72;45.77;100789.88;4959140;28;6808;-82
2023/06/15 04:45:38;;;;;;;;;;;;;;;22.06;45.23;100796.19;4951391;28;6800;-84
2023/06/15 04:48:07;;;;;;;;;;;;;;;22.38;44.77;100785.94;4949915;28;8520;-82
2023/06/15 04:50:33;;;;;;;;;;;;;;;22.70;44.30;100790.50;4962495;28;6782;-84
2023/06/15 04:52:59;;;;;;;;;;;;;;;22.98;43.68;100794.06;4941013;28;8632;-82
2023/06/15 04:55:24;;;;;;;;;;;;;;;23.29;42.93;100795.91;4938708;28;8548;-83
2023/06/15 04:57:50;;;;;;;;;;;;;;;23.62;42.45;100798.56;4958429;28;6947;-82
2023/06/15 05:00:16;;;;;;;;;;;;;;;23.88;41.97;100790.69;4932410;28;8605;-82
2023/06/15 05:02:42;;;;;;;;;;;;;;;24.18;41.30;100795.88;4948530;28;8436;-82
2023/06/15 05:05:08;;;;;;;;;;;;;;;24.48;41.16;100794.03;4958594;28;6812;-82
2023/06/15 05:07:34;;;;;;;;;;;;;;;24.78;40.22;100802.72;4933380;28;8737;-82
2023/06/15 05:10:00;;;;;;;;;;;;;;;25.06;39.48;100805.16;4950271;28;8728;-83
2023/06/15 05:12:26;;;;;;;;;;;;;;;25.34;38.97;100802.38;4952187;28;8477;-82
2023/06/15 05:14:51;;;;;;;;;;;;;;;25.59;38.39;100800.50;4950236;28;8800;-82
2023/06/15 05:17:20;;;;;;;;;;;;;;;25.81;38.19;100796.78;4947486;28;8347;-81
2023/06/15 05:19:46;;;;;;;;;;;;;;;26.07;37.91;100805.28;4934363;28;8474;-81
2023/06/15 05:22:11;;;;;;;;;;;;;;;26.30;37.43;100806.81;4944608;28;6780;-81
2023/06/15 05:24:37;;;;;;;;;;;;;;;26.52;36.95;100811.84;4929016;28;8442;-84
2023/06/15 05:27:03;;;;;;;;;;;;;;;26.69;36.88;100803.75;4946678;28;6814;-84
2023/06/15 05:29:28;;;;;;;;;;;;;;;26.92;36.82;100807.84;4943930;28;8197;-84
2023/06/15 05:31:59;;;;;;;;;;;;;;;27.08;36.64;100810.28;4942920;28;9416;-84
2023/06/15 05:34:26;;;;;;;;;;;;;;;27.24;36.17;100806.53;4946028;28;8509;-84
2023/06/15 05:36:54;;;;;;;;;;;;;;;27.42;35.64;100818.53;4955738;28;7300;-85
2023/06/15 05:39:20;;;;;;;;;;;;;;;27.52;35.58;100808.72;4930431;28;7229;-84
2023/06/15 05:41:46;;;;;;;;;;;;;;;27.68;35.17;100817.28;4934413;28;8439;-84
2023/06/15 05:44:12;;;;;;;;;;;;;;;27.81;35.36;100812.66;4945012;28;8508;-84
2023/06/15 05:46:38;;;;;;;;;;;;;;;27.94;34.87;100808.03;4947557;28;7041;-85
2023/06/15 05:49:03;;;;;;;;;;;;;;;28.06;34.83;100817.50;4959458;28;8454;-84
2023/06/15 05:51:29;;;;;;;;;;;;;;;28.14;34.53;100810.31;4959058;28;6784;-83
2023/06/15 05:53:54;;;;;;;;;;;;;;;28.23;33.49;100816.34;4945629;28;6948;-83
2023/06/15 05:56:20;;;;;;;;;;;;;;;28.25;33.72;100812.78;4955981;28;8394;-84
2023/06/15 05:58:46;;;;;;;;;;;;;;;28.19;33.04;100818.16;4937981;28;7098;-85
2023/06/15 06:01:11;;;;;;;;;;;;;;;28.03;33.23;100817.56;4955545;28;7057;-83
2023/06/15 06:03:37;;;;;;;;;;;;;;;27.77;33.15;100816.25;4947462;28;8405;-85
2023/06/15 06:06:03;;;;;;;;;;;;;;;27.47;33.56;100818.47;4936565;28;8422;-84
2023/06/15 06:08:28;;;;;;;;;;;;;;;27.12;33.62;100806.69;4929363;28;8767;-84
2023/06/15 06:10:54;;;;;;;;;;;;;;;26.85;33.66;100824.59;4932640;28;8430;-84
2023/06/15 06:13:20;;;;;;;;;;;;;;;26.55;34.18;100816.19;4956296;28;7123;-85
2023/06/15 06:15:45;;;;;;;;;;;;;;;26.29;33.89;100820.00;4960125;28;6999;-85
2023/06/15 06:18:11;;;;;;;;;;;;;;;26.04;34.61;100817.56;4950596;28;7790;-84
2023/06/15 06:20:38;;;;;;;;;;;;;;;25.82;34.84;100830.91;4962397;28;8591;-84
2023/06/15 06:23:03;;;;;;;;;;;;;;;25.64;35.25;100826.66;4945683;28;8429;-83
2023/06/15 06:25:29;;;;;;;;;;;;;;;25.47;35.33;100824.16;4948160;28;7217;-83
2023/06/15 06:27:55;;;;;;;;;;;;;;;25.32;35.84;100826.00;4956717;28;7146;-84
2023/06/15 06:30:21;;;;;;;;;;;;;;;25.23;36.00;100826.06;4959958;28;7135;-83
2023/06/15 06:32:47;;;;;;;;;;;;;;;25.15;36.13;100827.88;4952551;28;6836;-84
2023/06/15 06:35:12;;;;;;;;;;;;;;;25.06;36.71;100824.41;4951643;28;6840;-84
2023/06/15 06:37:38;;;;;;;;;;;;;;;24.98;36.77;100828.81;4958629;28;7121;-84
2023/06/15 06:40:05;;;;;;;;;;;;;;;24.96;36.97;100833.19;4951050;28;8546;-83
2023/06/15 06:42:30;;;;;;;;;;;;;;;24.94;36.82;100832.34;4960971;28;8668;-84
2023/06/15 06:44:56;;;;;;;;;;;;;;;24.95;37.25;100834.09;4963822;28;8395;-84
2023/06/15 06:47:22;;;;;;;;;;;;;;;24.96;37.34;100827.97;4945333;28;8396;-83
2023/06/15 06:49:48;;;;;;;;;;;;;;;25.00;37.31;100836.69;4943281;28;8671;-84
2023/06/15 06:52:14;;;;;;;;;;;;;;;25.05;37.15;100837.50;4930839;28;8388;-84
2023/06/15 06:54:40;;;;;;;;;;;;;;;25.15;37.33;100836.59;4928394;28;8435;-83
2023/06/15 06:57:08;;;;;;;;;;;;;;;25.36;37.53;100830.34;4947648;28;8594;-83
2023/06/15 06:59:34;;;;;;;;;;;;;;;25.71;37.78;100836.25;4961215;28;7220;-84
2023/06/15 07:02:00;;;;;;;;;;;;;;;26.12;37.88;100825.38;4960204;28;6829;-84
2023/06/15 07:04:25;;;;;;;;;;;;;;;26.54;37.29;100830.22;4960425;28;6768;-83
2023/06/15 07:06:51;;;;;;;;;;;;;;;26.99;36.99;100827.94;4959938;28;6848;-83
2023/06/15 07:09:17;;;;;;;;;;;;;;;27.46;36.41;100829.88;4957747;28;7234;-83
2023/06/15 07:11:43;;;;;;;;;;;;;;;27.86;36.24;100825.72;4956530;28;7149;-83
2023/06/15 07:14:09;;;;;;;;;;;;;;;28.25;35.05;100827.72;4948429;28;8411;-84
2023/06/15 07:16:34;;;;;;;;;;;;;;;28.62;34.77;100832.25;4962331;28;6769;-83
2023/06/15 07:19:00;;;;;;;;;;;;;;;28.99;34.09;100829.78;4958744;28;6849;-83
2023/06/15 07:21:28;;;;;;;;;;;;;;;29.36;34.25;100827.13;4959746;28;8593;-84
2023/06/15 07:23:54;;;;;;;;;;;;;;;29.74;33.15;100832.41;4960102;28;7315;-83
2023/06/15 07:26:21;;;;;;;;;;;;;;;30.16;32.81;100825.22;4954502;28;6764;-85
2023/06/15 07:28:49;;;;;;;;;;;;;;;30.54;32.24;100823.25;4960300;28;6950;-83
2023/06/15 07:31:15;;;;;;;;;;;;;;;30.89;32.11;100824.00;4959764;28;6975;-82
2023/06/15 07:33:40;;;;;;;;;;;;;;;31.17;31.71;100825.78;4937327;28;8379;-81
2023/06/15 07:36:06;;;;;;;;;;;;;;;31.41;31.11;100825.97;4950350;28;8493;-82
2023/06/15 07:38:31;;;;;;;;;;;;;;;31.67;30.59;100824.19;4958517;28;6788;-80
2023/06/15 07:40:57;;;;;;;;;;;;;;;31.97;30.02;100821.47;4945500;28;7161;-82
2023/06/15 07:43:23;;;;;;;;;;;;;;;32.23;29.85;100824.94;4960471;28;6832;-82
2023/06/15 07:45:48;;;;;;;;;;;;;;;32.41;29.48;100825.22;4956400;28;8706;-81
2023/06/15 07:48:14;;;;;;;;;;;;;;;32.53;29.03;100829.22;4961149;28;6852;-81
2023/06/15 07:50:40;;;;;;;;;;;;;;;32.63;29.18;100819.09;4960749;28;8408;-82
2023/06/15 07:53:06;;;;;;;;;;;;;;;32.80;28.73;100829.94;4948212;28;8438;-81
2023/06/15 07:55:32;;;;;;;;;;;;;;;32.95;28.53;100832.97;4945728;28;8486;-83
2023/06/15 07:57:58;;;;;;;;;;;;;;;33.03;28.10;100837.97;4962870;28;6776;-82
2023/06/15 08:00:23;;;;;;;;;;;;;;;33.10;27.94;100832.34;4948615;28;8381;-81
2023/06/15 08:02:49;;;;;;;;;;;;;;;33.20;27.23;100839.94;4948971;28;8505;-81
2023/06/15 08:05:18;;;;;;;;;;;;;;;33.25;26.84;100832.66;4958645;28;6848;-81
2023/06/15 08:07:43;;;;;;;;;;;;;;;33.34;26.66;100828.75;4948160;28;6974;-83
2023/06/15 08:10:10;;;;;;;;;;;;;;;33.38;26.49;100833.88;4964477;28;8366;-80
2023/06/15 08:12:35;;;;;;;;;;;;;;;33.47;26.56;100837.13;4958680;28;8533;-80
2023/06/15 08:15:01;;;;;;;;;;;;;;;33.57;26.20;100835.81;4963366;28;7178;-80
2023/06/15 08:17:26;;;;;;;;;;;;;;;33.68;26.61;100835.34;4955296;28;6935;-80
2023/06/15 08:19:53;;;;;;;;;;;;;;;33.82;26.00;100832.13;4958807;28;6971;-83
2023/06/15 08:22:18;;;;;;;;;;;;;;;33.98;25.46;100836.75;4964966;28;6785;-81
2023/06/15 08:24:45;;;;;;;;;;;;;;;34.04;25.46;100825.88;4963463;28;6948;-81
2023/06/15 08:27:11;;;;;;;;;;;;;;;34.14;25.24;100832.50;4944203;28;8509;-81
2023/06/15 08:29:38;;;;;;;;;;;;;;;34.33;24.60;100824.59;4959578;28;6970;-81
2023/06/15 08:32:08;;;;;;;;;;;;;;;34.52;24.54;100825.53;4965156;28;7243;-80
2023/06/15 08:34:34;;;;;;;;;;;;;;;34.76;24.69;100824.38;4945018;28;7171;-83
2023/06/15 08:37:00;;;;;;;;;;;;;;;35.02;24.02;100832.09;4948963;28;8395;-79
2023/06/15 08:39:25;;;;;;;;;;;;;;;35.30;24.45;100828.09;4961419;28;8490;-81
2023/06/15 08:41:55;;;;;;;;;;;;;;;35.58;23.57;100829.38;4960969;28;8589;-82
2023/06/15 08:44:21;;;;;;;;;;;;;;;35.86;23.68;100825.28;4965094;28;7425;-81
2023/06/15 08:46:47;;;;;;;;;;;;;;;36.19;23.18;100815.63;4943090;28;7034;-81
2023/06/15 08:49:14;;;;;;;;;;;;;;;36.51;22.75;100829.03;4963823;28;8396;-80
2023/06/15 08:51:42;;;;;;;;;;;;;;;36.77;22.31;100821.41;4927184;28;8914;-80
2023/06/15 08:54:09;;;;;;;;;;;;;;;36.99;22.32;100829.06;4952346;28;8439;-80
2023/06/15 08:56:38;;;;;;;;;;;;;;;37.20;21.59;100821.66;4950228;28;8409;-81
2023/06/15 08:59:04;;;;;;;;;;;;;;;37.38;21.04;100822.38;4960247;28;7270;-80
2023/06/15 09:01:32;;;;;;;;;;;;;;;37.44;19.99;100826.50;4947876;28;8846;-80
2023/06/15 09:03:58;;;;;;;;;;;;;;;37.41;20.19;100818.66;4953868;28;6796;-81
2023/06/15 09:06:23;;;;;;;;;;;;;;;37.37;20.06;100815.31;4946718;28;8580;-82
2023/06/15 09:08:51;;;;;;;;;;;;;;;37.49;20.27;100821.75;4961277;28;8523;-81
2023/06/15 09:11:18;;;;;;;;;;;;;;;37.67;19.93;100816.28;4956807;28;6792;-81
2023/06/15 09:13:45;;;;;;;;;;;;;;;37.77;19.45;100816.59;4945221;28;6796;-81
2023/06/15 09:16:11;;;;;;;;;;;;;;;37.85;19.10;100819.66;4926936;28;7311;-81
2023/06/15 09:18:51;;;;;;;;;;;;;;;37.95;19.47;100811.91;4958700;28;8433;-81
2023/06/15 09:21:23;;;;;;;;;;;;;;;38.08;19.48;100808.53;4959947;28;7143;-81
2023/06/15 09:23:48;;;;;;;;;;;;;;;38.25;19.18;100810.13;4943127;28;8410;-82
2023/06/15 09:26:26;;;;;;;;;;;;;;;38.37;18.81;100811.19;4957437;28;8396;-82
2023/06/15 09:28:58;;;;;;;;;;;;;;;38.32;18.32;100812.31;4946251;28;7405;-79
2023/06/15 09:31:36;;;;;;;;;;;;;;;38.25;18.32;100802.97;4943734;28;8538;-80
2023/06/15 09:34:07;;;;;;;;;;;;;;;38.26;18.41;100802.03;4940393;28;8535;-79
2023/06/15 09:36:50;;;;;;;;;;;;;;;38.15;18.35;100809.84;4957893;28;6959;-80
2023/06/15 09:39:22;;;;;;;;;;;;;;;38.11;18.06;100813.69;4962431;28;7203;-80
2023/06/15 09:42:01;;;;;;;;;;;;;;;38.21;18.22;100812.16;4952932;28;6887;-80
2023/06/15 09:44:27;;;;;;;;;;;;;;;38.32;17.86;100812.31;4925696;28;7111;-80
2023/06/15 09:46:58;;;;;;;;;;;;;;;38.42;18.07;100811.75;4961499;28;6784;-81
2023/06/15 09:49:26;;;;;;;;;;;;;;;38.47;17.66;100812.31;4960918;28;8459;-80
2023/06/15 09:51:54;;;;;;;;;;;;;;;38.39;17.41;100795.88;4932942;28;8750;-80
2023/06/15 09:54:24;;;;;;;;;;;;;;;38.31;17.32;100807.94;4960275;28;8376;-79
2023/06/15 09:56:52;;;;;;;;;;;;;;;38.39;17.21;100801.25;4952581;28;8415;-80
2023/06/15 09:59:19;;;;;;;;;;;;;;;38.56;17.22;100800.19;4963117;28;7234;-80
2023/06/15 10:01:48;;;;;;;;;;;;;;;38.73;17.54;100805.31;4961019;28;6812;-80
2023/06/15 10:04:25;;;;;;;;;;;;;;;39.00;17.03;100799.13;4946723;28;8527;-80
2023/06/15 10:07:10;;;;;;;;;;;;;;;39.27;16.95;100808.09;4947463;28;8604;-80
2023/06/15 10:09:45;;;;;;;;;;;;;;;39.57;16.55;100805.19;4959642;28;6804;-80
2023/06/15 10:12:25;;;;;;;;;;;;;;;39.86;16.97;100804.09;4962900;28;7000;-79
2023/06/15 10:15:04;;;;;;;;;;;;;;;40.20;16.67;100803.56;4947573;28;8532;-79
2023/06/15 10:17:34;;;;;;;;;;;;;;;40.41;16.76;100804.72;4934405;28;8754;-81
2023/06/15 10:20:08;;;;;;;;;;;;;;;40.49;15.94;100806.88;4932944;28;8478;-80
2023/06/15 10:22:45;;;;;;;;;;;;;;;40.27;15.58;100803.03;4947394;28;8535;-80
2023/06/15 10:25:12;;;;;;;;;;;;;;;40.01;16.03;100812.91;4948939;28;6828;-79
2023/06/15 10:27:38;;;;;;;;;;;;;;;39.80;15.79;100815.28;4956492;28;7059;-79
2023/06/15 10:30:15;;;;;;;;;;;;;;;39.80;16.06;100809.91;4943536;28;7400;-81
2023/06/15 10:32:57;;;;;;;;;;;;;;;40.02;15.96;100821.84;4957559;28;11986;-80
2023/06/15 10:35:38;;;;;;;;;;;;;;;40.26;15.93;100808.50;4943643;28;8876;-80
2023/06/15 10:38:35;;;;;;;;;;;;;;;40.53;16.11;100808.34;4930384;28;8572;-80
2023/06/15 10:41:03;;;;;;;;;;;;;;;40.89;15.88;100796.84;4961063;28;7155;-79
2023/06/15 10:43:29;;;;;;;;;;;;;;;41.04;15.07;100802.91;4940094;28;7295;-79
2023/06/15 10:45:55;;;;;;;;;;;;;;;40.97;15.41;100802.53;4956659;28;7319;-80
2023/06/15 10:48:30;;;;;;;;;;;;;;;40.77;15.22;100796.81;4965397;28;8476;-81
2023/06/15 10:51:08;;;;;;;;;;;;;;;40.62;15.02;100796.09;4954440;28;6784;-79
2023/06/15 10:53:41;;;;;;;;;;;;;;;40.43;14.74;100796.56;4928985;28;8394;-81
2023/06/15 10:56:20;;;;;;;;;;;;;;;40.26;14.75;100793.25;4960458;28;8572;-80
2023/06/15 10:58:59;;;;;;;;;;;;;;;39.98;14.84;100803.28;4960654;28;6784;-80
2023/06/15 11:01:33;;;;;;;;;;;;;;;39.70;15.00;100799.81;4951314;28;7163;-80
2023/06/15 11:04:29;;;;;;;;;;;;;;;39.54;15.15;100796.47;4956536;28;6800;-78
2023/06/15 11:06:57;;;;;;;;;;;;;;;39.29;15.01;100801.66;4943735;28;8419;-79
2023/06/15 11:09:31;;;;;;;;;;;;;;;39.13;15.08;100799.16;4948315;28;8427;-79
2023/06/15 11:11:56;;;;;;;;;;;;;;;39.11;15.45;100801.06;4963379;28;6800;-79
2023/06/15 11:14:23;;;;;;;;;;;;;;;39.00;14.91;100806.28;4960324;28;7006;-79
2023/06/15 11:17:04;;;;;;;;;;;;;;;38.71;15.66;100803.69;4951254;28;6959;-78
2023/06/15 11:19:30;;;;;;;;;;;;;;;38.84;15.39;100798.38;4959681;28;7017;-78
2023/06/15 11:22:00;;;;;;;;;;;;;;;39.01;15.46;100803.53;4933281;28;8460;-77
2023/06/15 11:24:33;;;;;;;;;;;;;;;39.18;15.44;100804.22;4947580;28;9230;-78
2023/06/15 11:27:12;;;;;;;;;;;;;;;39.08;15.60;100793.25;4950103;28;8776;-78
2023/06/15 11:29:42;;;;;;;;;;;;;;;38.89;15.57;100799.78;4962361;28;7002;-78
2023/06/15 11:32:10;;;;;;;;;;;;;;;38.29;15.79;100796.47;4931930;28;8600;-80
2023/06/15 11:34:37;;;;;;;;;;;;;;;37.71;16.34;100799.09;4943585;28;6988;-80
2023/06/15 11:37:04;;;;;;;;;;;;;;;37.23;16.83;100804.56;4945502;28;7285;-79
2023/06/15 11:39:31;;;;;;;;;;;;;;;37.03;16.41;100800.38;4947536;28;7002;-78
2023/06/15 11:41:59;;;;;;;;;;;;;;;37.34;17.15;100791.47;4945978;28;7159;-78
2023/06/15 11:44:28;;;;;;;;;;;;;;;37.89;16.76;100793.59;4959967;28;6807;-81
2023/06/15 11:47:01;;;;;;;;;;;;;;;38.48;16.15;100780.09;4943950;28;8968;-78
2023/06/15 11:49:35;;;;;;;;;;;;;;;38.99;16.13;100784.03;4957546;28;6968;-77
2023/06/15 11:52:02;;;;;;;;;;;;;;;39.29;15.88;100779.34;4954576;28;6808;-80
2023/06/15 11:54:28;;;;;;;;;;;;;;;39.55;15.76;100774.06;4959098;28;6803;-77
2023/06/15 11:56:57;;;;;;;;;;;;;;;39.93;16.21;100777.72;4958484;28;6826;-81
2023/06/15 11:59:25;;;;;;;;;;;;;;;40.37;15.64;100770.16;4946615;28;7007;-85
2023/06/15 12:01:53;;;;;;;;;;;;;;;40.79;15.78;100768.00;4955342;28;6863;-84
2023/06/15 12:04:19;;;;;;;;;;;;;;;41.26;15.50;100769.91;4943846;28;9881;-83
2023/06/15 12:06:46;;;;;;;;;;;;;;;41.56;14.67;100770.31;4947910;28;7166;-84
2023/06/15 12:09:12;;;;;;;;;;;;;;;41.63;14.49;100768.88;4957884;28;6796;-80
2023/06/15 12:11:39;;;;;;;;;;;;;;;41.47;14.35;100764.69;4946009;28;8394;-86
2023/06/15 12:14:10;;;;;;;;;;;;;;;41.29;14.67;100764.28;4945416;28;8430;-84
2023/06/15 12:16:37;;;;;;;;;;;;;;;41.31;14.24;100756.13;4954533;28;6887;-89
2023/06/15 12:19:07;;;;;;;;;;;;;;;41.31;14.02;100756.97;4950694;28;8877;-87
2023/06/15 12:21:40;;;;;;;;;;;;;;;41.19;14.46;100761.44;5024166;28;6672;-74
2023/06/15 12:24:17;;;;;;;;;;;;;;;41.19;14.09;100760.56;5033485;28;7195;-74
2023/06/15 12:26:53;;;;;;;;;;;;;;;41.22;14.29;100747.78;4995027;28;7110;-74
2023/06/15 12:29:21;;;;;;;;;;;;;;;41.31;14.44;100746.19;5011658;28;6973;-73
2023/06/15 12:31:57;;;;;;;;;;;;;;;41.25;14.12;100752.06;4961135;28;6859;-75
2023/06/15 12:34:25;;;;;;;;;;;;;;;41.18;14.18;100742.72;4989534;28;6819;-74
2023/06/15 12:36:52;;;;;;;;;;;;;;;41.16;14.08;100745.53;4990381;28;6851;-74
2023/06/15 12:39:18;;;;;;;;;;;;;;;41.23;14.07;100736.06;4985727;28;7216;-74
2023/06/15 12:41:44;;;;;;;;;;;;;;;41.39;14.22;100736.69;4973234;28;6950;-76
2023/06/15 12:44:11;;;;;;;;;;;;;;;41.47;13.60;100742.34;4989176;28;7027;-74
2023/06/15 12:46:39;;;;;;;;;;;;;;;41.46;13.83;100732.56;4956024;28;6808;-74
2023/06/15 12:49:12;;;;;;;;;;;;;;;41.44;13.71;100729.13;4958235;28;6888;-75
2023/06/15 12:51:38;;;;;;;;;;;;;;;41.46;13.92;100737.94;4989838;28;6939;-74
2023/06/15 12:54:03;;;;;;;;;;;;;;;41.51;14.14;100728.53;4958662;28;6784;-74